sensor_id;sensor_type;location;lat;lon;timestamp;P1;P2;P0
32503;PMS5003;18953;45.930;13.640;2024-02-14T00:00:00;34;30;
32503;PMS5003;18953;45.930;13.640;2024-02-14T00:05:16;33;28;
32503;PMS5003;18953;45.930;13.640;2024-02-14T00:10:33;27;24;
32503;PMS5003;18953;45.930;13.640;2024-02-14T00:15:49;25;24;
32503;PMS5003;18953;45.930;13.640;2024-02-14T00:21:05;26;23;
32503;PMS5003;18953;45.930;13.640;2024-02-14T00:26:21;23;22;
32503;PMS5003;18953;45.930;13.640;2024-02-14T00:31:38;18;17;
32503;PMS5003;18953;45.930;13.640;2024-02-14T00:36:54;15;14;
32503;PMS5003;18953;45.930;13.640;2024-02-14T00:42:11;19;17;
32503;PMS5003;18953;45.930;13.640;2024-02-14T00:47:27;17;16;
32503;PMS5003;18953;45.930;13.640;2024-02-14T00:52:43;21;19;
32503;PMS5003;18953;45.930;13.640;2024-02-14T00:58:00;17;15;
32503;PMS5003;18953;45.930;13.640;2024-02-14T01:03:16;16;13;
32503;PMS5003;18953;45.930;13.640;2024-02-14T01:08:32;13;12;
32503;PMS5003;18953;45.930;13.640;2024-02-14T01:13:49;15;14;
32503;PMS5003;18953;45.930;13.640;2024-02-14T01:19:05;14;13;
32503;PMS5003;18953;45.930;13.640;2024-02-14T01:24:21;14;12;
32503;PMS5003;18953;45.930;13.640;2024-02-14T01:29:38;16;14;
32503;PMS5003;18953;45.930;13.640;2024-02-14T01:34:54;10;10;
32503;PMS5003;18953;45.930;13.640;2024-02-14T01:40:11;13;12;
32503;PMS5003;18953;45.930;13.640;2024-02-14T01:45:27;6;6;
32503;PMS5003;18953;45.930;13.640;2024-02-14T01:50:43;7;6;
32503;PMS5003;18953;45.930;13.640;2024-02-14T01:55:59;8;6;
32503;PMS5003;18953;45.930;13.640;2024-02-14T02:01:16;6;5;
32503;PMS5003;18953;45.930;13.640;2024-02-14T02:06:32;11;9;
32503;PMS5003;18953;45.930;13.640;2024-02-14T02:11:49;6;5;
32503;PMS5003;18953;45.930;13.640;2024-02-14T02:17:05;5;4;
32503;PMS5003;18953;45.930;13.640;2024-02-14T02:22:21;4;4;
32503;PMS5003;18953;45.930;13.640;2024-02-14T02:27:37;6;4;
32503;PMS5003;18953;45.930;13.640;2024-02-14T02:32:54;7;6;
32503;PMS5003;18953;45.930;13.640;2024-02-14T02:38:10;4;4;
32503;PMS5003;18953;45.930;13.640;2024-02-14T02:43:26;6;5;
32503;PMS5003;18953;45.930;13.640;2024-02-14T02:48:43;7;7;
32503;PMS5003;18953;45.930;13.640;2024-02-14T02:53:59;7;7;
32503;PMS5003;18953;45.930;13.640;2024-02-14T02:59:15;8;8;
32503;PMS5003;18953;45.930;13.640;2024-02-14T03:04:32;12;9;
32503;PMS5003;18953;45.930;13.640;2024-02-14T03:09:48;11;8;
32503;PMS5003;18953;45.930;13.640;2024-02-14T03:15:05;9;8;
32503;PMS5003;18953;45.930;13.640;2024-02-14T03:20:21;14;9;
32503;PMS5003;18953;45.930;13.640;2024-02-14T03:25:37;13;9;
32503;PMS5003;18953;45.930;13.640;2024-02-14T03:30:53;11;9;
32503;PMS5003;18953;45.930;13.640;2024-02-14T03:36:10;8;7;
32503;PMS5003;18953;45.930;13.640;2024-02-14T03:41:26;8;7;
32503;PMS5003;18953;45.930;13.640;2024-02-14T03:46:43;10;8;
32503;PMS5003;18953;45.930;13.640;2024-02-14T03:51:59;6;6;
32503;PMS5003;18953;45.930;13.640;2024-02-14T03:57:15;9;7;
32503;PMS5003;18953;45.930;13.640;2024-02-14T04:02:32;7;7;
32503;PMS5003;18953;45.930;13.640;2024-02-14T04:07:48;5;5;
32503;PMS5003;18953;45.930;13.640;2024-02-14T04:13:04;7;6;
32503;PMS5003;18953;45.930;13.640;2024-02-14T04:18:21;7;6;
32503;PMS5003;18953;45.930;13.640;2024-02-14T04:23:37;4;4;
32503;PMS5003;18953;45.930;13.640;2024-02-14T04:28:53;6;5;
32503;PMS5003;18953;45.930;13.640;2024-02-14T04:34:10;4;4;
32503;PMS5003;18953;45.930;13.640;2024-02-14T04:39:26;3;3;
32503;PMS5003;18953;45.930;13.640;2024-02-14T04:44:42;15;14;
32503;PMS5003;18953;45.930;13.640;2024-02-14T04:49:59;5;5;
32503;PMS5003;18953;45.930;13.640;2024-02-14T04:55:15;11;10;
32503;PMS5003;18953;45.930;13.640;2024-02-14T05:00:31;10;9;
32503;PMS5003;18953;45.930;13.640;2024-02-14T05:05:48;8;8;
32503;PMS5003;18953;45.930;13.640;2024-02-14T05:11:04;12;8;
32503;PMS5003;18953;45.930;13.640;2024-02-14T05:16:20;9;7;
32503;PMS5003;18953;45.930;13.640;2024-02-14T05:21:37;8;8;
32503;PMS5003;18953;45.930;13.640;2024-02-14T05:26:53;19;18;
32503;PMS5003;18953;45.930;13.640;2024-02-14T05:32:09;12;12;
32503;PMS5003;18953;45.930;13.640;2024-02-14T05:37:26;21;20;
32503;PMS5003;18953;45.930;13.640;2024-02-14T05:42:42;17;17;
32503;PMS5003;18953;45.930;13.640;2024-02-14T05:47:58;17;16;
32503;PMS5003;18953;45.930;13.640;2024-02-14T05:53:15;13;11;
32503;PMS5003;18953;45.930;13.640;2024-02-14T05:58:31;12;11;
32503;PMS5003;18953;45.930;13.640;2024-02-14T06:03:48;21;20;
32503;PMS5003;18953;45.930;13.640;2024-02-14T06:09:04;19;17;
32503;PMS5003;18953;45.930;13.640;2024-02-14T06:14:20;16;14;
32503;PMS5003;18953;45.930;13.640;2024-02-14T06:19:37;18;15;
32503;PMS5003;18953;45.930;13.640;2024-02-14T06:24:53;18;16;
32503;PMS5003;18953;45.930;13.640;2024-02-14T06:30:10;32;29;
32503;PMS5003;18953;45.930;13.640;2024-02-14T06:35:26;25;22;
32503;PMS5003;18953;45.930;13.640;2024-02-14T06:40:42;26;22;
32503;PMS5003;18953;45.930;13.640;2024-02-14T06:45:59;17;15;
32503;PMS5003;18953;45.930;13.640;2024-02-14T06:51:15;18;16;
32503;PMS5003;18953;45.930;13.640;2024-02-14T06:56:32;27;23;
32503;PMS5003;18953;45.930;13.640;2024-02-14T07:01:48;20;19;
32503;PMS5003;18953;45.930;13.640;2024-02-14T07:07:04;38;34;
32503;PMS5003;18953;45.930;13.640;2024-02-14T07:12:20;35;32;
32503;PMS5003;18953;45.930;13.640;2024-02-14T07:17:37;29;26;
32503;PMS5003;18953;45.930;13.640;2024-02-14T07:22:53;33;30;
32503;PMS5003;18953;45.930;13.640;2024-02-14T07:28:09;31;25;
32503;PMS5003;18953;45.930;13.640;2024-02-14T07:33:26;31;28;
32503;PMS5003;18953;45.930;13.640;2024-02-14T07:38:42;41;37;
32503;PMS5003;18953;45.930;13.640;2024-02-14T07:43:58;36;31;
32503;PMS5003;18953;45.930;13.640;2024-02-14T07:49:15;35;30;
32503;PMS5003;18953;45.930;13.640;2024-02-14T07:54:31;25;25;
32503;PMS5003;18953;45.930;13.640;2024-02-14T07:59:48;32;28;
32503;PMS5003;18953;45.930;13.640;2024-02-14T08:05:04;17;16;
32503;PMS5003;18953;45.930;13.640;2024-02-14T08:10:21;20;17;
32503;PMS5003;18953;45.930;13.640;2024-02-14T08:15:37;20;19;
32503;PMS5003;18953;45.930;13.640;2024-02-14T08:20:53;26;22;
32503;PMS5003;18953;45.930;13.640;2024-02-14T08:26:10;23;22;
32503;PMS5003;18953;45.930;13.640;2024-02-14T08:31:26;20;20;
32503;PMS5003;18953;45.930;13.640;2024-02-14T08:36:43;47;37;
32503;PMS5003;18953;45.930;13.640;2024-02-14T08:41:59;38;34;
32503;PMS5003;18953;45.930;13.640;2024-02-14T08:47:16;46;37;
32503;PMS5003;18953;45.930;13.640;2024-02-14T08:52:33;35;31;
32503;PMS5003;18953;45.930;13.640;2024-02-14T08:57:49;26;22;
32503;PMS5003;18953;45.930;13.640;2024-02-14T09:03:06;28;24;
32503;PMS5003;18953;45.930;13.640;2024-02-14T09:08:22;26;24;
32503;PMS5003;18953;45.930;13.640;2024-02-14T09:13:38;22;20;
32503;PMS5003;18953;45.930;13.640;2024-02-14T09:18:54;20;20;
32503;PMS5003;18953;45.930;13.640;2024-02-14T09:24:11;19;18;
32503;PMS5003;18953;45.930;13.640;2024-02-14T09:29:27;14;12;
32503;PMS5003;18953;45.930;13.640;2024-02-14T09:34:43;11;10;
32503;PMS5003;18953;45.930;13.640;2024-02-14T09:40:00;12;10;
32503;PMS5003;18953;45.930;13.640;2024-02-14T09:45:16;15;13;
32503;PMS5003;18953;45.930;13.640;2024-02-14T09:50:32;12;12;
32503;PMS5003;18953;45.930;13.640;2024-02-14T09:55:48;14;12;
32503;PMS5003;18953;45.930;13.640;2024-02-14T10:01:05;16;14;
32503;PMS5003;18953;45.930;13.640;2024-02-14T10:06:21;11;10;
32503;PMS5003;18953;45.930;13.640;2024-02-14T10:11:37;15;14;
32503;PMS5003;18953;45.930;13.640;2024-02-14T10:16:54;4;4;
32503;PMS5003;18953;45.930;13.640;2024-02-14T10:22:10;4;4;
32503;PMS5003;18953;45.930;13.640;2024-02-14T10:27:26;4;4;
32503;PMS5003;18953;45.930;13.640;2024-02-14T10:32:42;5;5;
32503;PMS5003;18953;45.930;13.640;2024-02-14T10:37:59;6;6;
32503;PMS5003;18953;45.930;13.640;2024-02-14T10:43:15;8;8;
32503;PMS5003;18953;45.930;13.640;2024-02-14T10:48:31;5;4;
32503;PMS5003;18953;45.930;13.640;2024-02-14T10:53:48;5;5;
32503;PMS5003;18953;45.930;13.640;2024-02-14T10:59:04;8;6;
32503;PMS5003;18953;45.930;13.640;2024-02-14T11:04:20;7;6;
32503;PMS5003;18953;45.930;13.640;2024-02-14T11:09:36;7;5;
32503;PMS5003;18953;45.930;13.640;2024-02-14T11:14:56;8;7;
32503;PMS5003;18953;45.930;13.640;2024-02-14T11:20:13;7;6;
32503;PMS5003;18953;45.930;13.640;2024-02-14T11:25:28;6;6;
32503;PMS5003;18953;45.930;13.640;2024-02-14T11:30:41;7;7;
32503;PMS5003;18953;45.930;13.640;2024-02-14T11:35:57;7;6;
32503;PMS5003;18953;45.930;13.640;2024-02-14T11:41:14;9;8;
32503;PMS5003;18953;45.930;13.640;2024-02-14T11:46:30;7;7;
32503;PMS5003;18953;45.930;13.640;2024-02-14T11:51:46;11;10;
32503;PMS5003;18953;45.930;13.640;2024-02-14T11:57:03;8;7;
32503;PMS5003;18953;45.930;13.640;2024-02-14T12:02:19;10;9;
32503;PMS5003;18953;45.930;13.640;2024-02-14T12:07:35;9;9;
32503;PMS5003;18953;45.930;13.640;2024-02-14T12:12:51;10;9;
32503;PMS5003;18953;45.930;13.640;2024-02-14T12:18:08;9;8;
32503;PMS5003;18953;45.930;13.640;2024-02-14T12:23:24;10;9;
32503;PMS5003;18953;45.930;13.640;2024-02-14T12:28:40;11;10;
32503;PMS5003;18953;45.930;13.640;2024-02-14T12:33:56;8;8;
32503;PMS5003;18953;45.930;13.640;2024-02-14T12:39:12;11;10;
32503;PMS5003;18953;45.930;13.640;2024-02-14T12:44:29;8;8;
32503;PMS5003;18953;45.930;13.640;2024-02-14T12:49:45;9;9;
32503;PMS5003;18953;45.930;13.640;2024-02-14T12:55:01;9;8;
32503;PMS5003;18953;45.930;13.640;2024-02-14T13:00:18;10;9;
32503;PMS5003;18953;45.930;13.640;2024-02-14T13:05:34;8;7;
32503;PMS5003;18953;45.930;13.640;2024-02-14T13:10:50;7;6;
32503;PMS5003;18953;45.930;13.640;2024-02-14T13:16:06;9;9;
32503;PMS5003;18953;45.930;13.640;2024-02-14T13:21:23;9;8;
32503;PMS5003;18953;45.930;13.640;2024-02-14T13:26:39;7;7;
32503;PMS5003;18953;45.930;13.640;2024-02-14T13:31:55;7;6;
32503;PMS5003;18953;45.930;13.640;2024-02-14T13:37:11;9;8;
32503;PMS5003;18953;45.930;13.640;2024-02-14T13:42:28;8;8;
32503;PMS5003;18953;45.930;13.640;2024-02-14T13:47:44;8;8;
32503;PMS5003;18953;45.930;13.640;2024-02-14T13:53:00;8;8;
32503;PMS5003;18953;45.930;13.640;2024-02-14T13:58:17;8;7;
32503;PMS5003;18953;45.930;13.640;2024-02-14T14:03:33;13;11;
32503;PMS5003;18953;45.930;13.640;2024-02-14T14:08:49;10;9;
32503;PMS5003;18953;45.930;13.640;2024-02-14T14:14:06;10;9;
32503;PMS5003;18953;45.930;13.640;2024-02-14T14:19:22;7;7;
32503;PMS5003;18953;45.930;13.640;2024-02-14T14:24:38;17;15;
32503;PMS5003;18953;45.930;13.640;2024-02-14T14:29:54;13;13;
32503;PMS5003;18953;45.930;13.640;2024-02-14T14:35:11;15;13;
32503;PMS5003;18953;45.930;13.640;2024-02-14T14:40:27;23;21;
32503;PMS5003;18953;45.930;13.640;2024-02-14T14:45:43;8;7;
32503;PMS5003;18953;45.930;13.640;2024-02-14T14:51:00;8;7;
32503;PMS5003;18953;45.930;13.640;2024-02-14T14:56:16;8;8;
32503;PMS5003;18953;45.930;13.640;2024-02-14T15:01:32;22;18;
32503;PMS5003;18953;45.930;13.640;2024-02-14T15:06:49;17;14;
32503;PMS5003;18953;45.930;13.640;2024-02-14T15:12:06;51;40;
32503;PMS5003;18953;45.930;13.640;2024-02-14T15:17:22;9;8;
32503;PMS5003;18953;45.930;13.640;2024-02-14T15:22:39;67;49;
32503;PMS5003;18953;45.930;13.640;2024-02-14T15:27:55;47;36;
32503;PMS5003;18953;45.930;13.640;2024-02-14T15:33:13;64;49;
32503;PMS5003;18953;45.930;13.640;2024-02-14T15:38:30;34;31;
32503;PMS5003;18953;45.930;13.640;2024-02-14T15:43:46;19;18;
32503;PMS5003;18953;45.930;13.640;2024-02-14T15:49:02;49;40;
32503;PMS5003;18953;45.930;13.640;2024-02-14T15:54:19;28;23;
32503;PMS5003;18953;45.930;13.640;2024-02-14T15:59:35;28;26;
32503;PMS5003;18953;45.930;13.640;2024-02-14T16:04:51;18;17;
32503;PMS5003;18953;45.930;13.640;2024-02-14T16:10:08;18;17;
32503;PMS5003;18953;45.930;13.640;2024-02-14T16:15:24;23;20;
32503;PMS5003;18953;45.930;13.640;2024-02-14T16:20:41;52;41;
32503;PMS5003;18953;45.930;13.640;2024-02-14T16:25:57;27;24;
32503;PMS5003;18953;45.930;13.640;2024-02-14T16:31:13;28;24;
32503;PMS5003;18953;45.930;13.640;2024-02-14T16:36:30;22;22;
32503;PMS5003;18953;45.930;13.640;2024-02-14T16:41:47;72;54;
32503;PMS5003;18953;45.930;13.640;2024-02-14T16:47:03;30;28;
32503;PMS5003;18953;45.930;13.640;2024-02-14T16:52:20;45;35;
32503;PMS5003;18953;45.930;13.640;2024-02-14T16:57:36;40;33;
32503;PMS5003;18953;45.930;13.640;2024-02-14T17:02:52;34;32;
32503;PMS5003;18953;45.930;13.640;2024-02-14T17:08:08;38;34;
32503;PMS5003;18953;45.930;13.640;2024-02-14T17:13:25;58;45;
32503;PMS5003;18953;45.930;13.640;2024-02-14T17:18:42;63;51;
32503;PMS5003;18953;45.930;13.640;2024-02-14T17:23:58;64;52;
32503;PMS5003;18953;45.930;13.640;2024-02-14T17:29:14;68;54;
32503;PMS5003;18953;45.930;13.640;2024-02-14T17:34:31;73;55;
32503;PMS5003;18953;45.930;13.640;2024-02-14T17:39:47;67;55;
32503;PMS5003;18953;45.930;13.640;2024-02-14T17:45:04;56;45;
32503;PMS5003;18953;45.930;13.640;2024-02-14T17:50:20;57;45;
32503;PMS5003;18953;45.930;13.640;2024-02-14T17:55:36;68;52;
32503;PMS5003;18953;45.930;13.640;2024-02-14T18:00:53;63;52;
32503;PMS5003;18953;45.930;13.640;2024-02-14T18:06:09;89;68;
32503;PMS5003;18953;45.930;13.640;2024-02-14T18:11:25;98;87;
32503;PMS5003;18953;45.930;13.640;2024-02-14T18:16:42;60;48;
32503;PMS5003;18953;45.930;13.640;2024-02-14T18:21:58;63;50;
32503;PMS5003;18953;45.930;13.640;2024-02-14T18:27:15;73;55;
32503;PMS5003;18953;45.930;13.640;2024-02-14T18:32:32;83;62;
32503;PMS5003;18953;45.930;13.640;2024-02-14T18:37:49;81;64;
32503;PMS5003;18953;45.930;13.640;2024-02-14T18:43:05;87;68;
32503;PMS5003;18953;45.930;13.640;2024-02-14T18:48:22;55;44;
32503;PMS5003;18953;45.930;13.640;2024-02-14T18:53:38;70;55;
32503;PMS5003;18953;45.930;13.640;2024-02-14T18:58:55;77;61;
32503;PMS5003;18953;45.930;13.640;2024-02-14T19:04:12;52;43;
32503;PMS5003;18953;45.930;13.640;2024-02-14T19:09:28;64;53;
32503;PMS5003;18953;45.930;13.640;2024-02-14T19:14:45;70;56;
32503;PMS5003;18953;45.930;13.640;2024-02-14T19:20:02;134;110;
32503;PMS5003;18953;45.930;13.640;2024-02-14T19:25:18;262;204;
32503;PMS5003;18953;45.930;13.640;2024-02-14T19:30:35;103;87;
32503;PMS5003;18953;45.930;13.640;2024-02-14T19:35:52;68;55;
32503;PMS5003;18953;45.930;13.640;2024-02-14T19:41:09;73;57;
32503;PMS5003;18953;45.930;13.640;2024-02-14T19:46:25;66;52;
32503;PMS5003;18953;45.930;13.640;2024-02-14T19:51:41;69;55;
32503;PMS5003;18953;45.930;13.640;2024-02-14T19:56:58;75;58;
32503;PMS5003;18953;45.930;13.640;2024-02-14T20:02:15;69;56;
32503;PMS5003;18953;45.930;13.640;2024-02-14T20:07:32;83;65;
32503;PMS5003;18953;45.930;13.640;2024-02-14T20:12:48;100;86;
32503;PMS5003;18953;45.930;13.640;2024-02-14T20:18:05;94;74;
32503;PMS5003;18953;45.930;13.640;2024-02-14T20:23:22;89;67;
32503;PMS5003;18953;45.930;13.640;2024-02-14T20:28:38;91;68;
32503;PMS5003;18953;45.930;13.640;2024-02-14T20:33:54;73;56;
32503;PMS5003;18953;45.930;13.640;2024-02-14T20:39:11;51;43;
32503;PMS5003;18953;45.930;13.640;2024-02-14T20:44:27;57;46;
32503;PMS5003;18953;45.930;13.640;2024-02-14T20:49:43;63;49;
32503;PMS5003;18953;45.930;13.640;2024-02-14T20:55:00;79;61;
32503;PMS5003;18953;45.930;13.640;2024-02-14T21:00:17;60;50;
32503;PMS5003;18953;45.930;13.640;2024-02-14T21:05:34;69;53;
32503;PMS5003;18953;45.930;13.640;2024-02-14T21:10:50;53;45;
32503;PMS5003;18953;45.930;13.640;2024-02-14T21:16:07;66;50;
32503;PMS5003;18953;45.930;13.640;2024-02-14T21:21:23;69;53;
32503;PMS5003;18953;45.930;13.640;2024-02-14T21:26:40;61;51;
32503;PMS5003;18953;45.930;13.640;2024-02-14T21:31:57;70;56;
32503;PMS5003;18953;45.930;13.640;2024-02-14T21:37:13;61;50;
32503;PMS5003;18953;45.930;13.640;2024-02-14T21:42:30;59;48;
32503;PMS5003;18953;45.930;13.640;2024-02-14T21:47:46;59;47;
32503;PMS5003;18953;45.930;13.640;2024-02-14T21:53:02;65;51;
32503;PMS5003;18953;45.930;13.640;2024-02-14T21:58:19;70;54;
32503;PMS5003;18953;45.930;13.640;2024-02-14T22:03:36;64;51;
32503;PMS5003;18953;45.930;13.640;2024-02-14T22:08:53;68;55;
32503;PMS5003;18953;45.930;13.640;2024-02-14T22:14:09;72;56;
32503;PMS5003;18953;45.930;13.640;2024-02-14T22:19:26;75;58;
32503;PMS5003;18953;45.930;13.640;2024-02-14T22:24:42;74;58;
32503;PMS5003;18953;45.930;13.640;2024-02-14T22:29:59;72;57;
32503;PMS5003;18953;45.930;13.640;2024-02-14T22:35:16;68;57;
32503;PMS5003;18953;45.930;13.640;2024-02-14T22:40:32;52;44;
32503;PMS5003;18953;45.930;13.640;2024-02-14T22:45:49;59;48;
32503;PMS5003;18953;45.930;13.640;2024-02-14T22:51:05;67;52;
32503;PMS5003;18953;45.930;13.640;2024-02-14T22:56:21;56;46;
32503;PMS5003;18953;45.930;13.640;2024-02-14T23:01:38;58;48;
32503;PMS5003;18953;45.930;13.640;2024-02-14T23:06:55;62;51;
32503;PMS5003;18953;45.930;13.640;2024-02-14T23:12:11;77;60;
32503;PMS5003;18953;45.930;13.640;2024-02-14T23:17:27;61;50;
32503;PMS5003;18953;45.930;13.640;2024-02-14T23:22:43;65;53;
32503;PMS5003;18953;45.930;13.640;2024-02-14T23:28:00;66;51;
32503;PMS5003;18953;45.930;13.640;2024-02-14T23:33:17;57;44;
32503;PMS5003;18953;45.930;13.640;2024-02-14T23:38:32;52;45;
32503;PMS5003;18953;45.930;13.640;2024-02-14T23:43:49;50;42;
32503;PMS5003;18953;45.930;13.640;2024-02-14T23:49:06;51;43;
32503;PMS5003;18953;45.930;13.640;2024-02-14T23:54:22;45;41;
32503;PMS5003;18953;45.930;13.640;2024-02-14T23:59:38;45;35;
